createdAt,value
2023-12-09T00:01:42.752Z,32.70
2023-12-09T00:04:09.695Z,30.83
2023-12-09T00:06:36.766Z,33.22
2023-12-09T00:09:04.364Z,34.17
2023-12-09T00:11:31.319Z,32.05
2023-12-09T00:14:04.734Z,33.15
2023-12-09T00:16:34.450Z,31.40
2023-12-09T00:19:01.559Z,30.75
2023-12-09T00:21:28.596Z,32.53
2023-12-09T00:23:55.368Z,32.58
2023-12-09T00:26:22.035Z,33.92
2023-12-09T00:28:48.641Z,33.60
2023-12-09T00:31:15.369Z,34.50
2023-12-09T00:33:42.338Z,31.05
2023-12-09T00:36:09.468Z,33.05
2023-12-09T00:38:36.121Z,29.42
2023-12-09T00:41:02.784Z,32.30
2023-12-09T00:43:29.397Z,28.83
2023-12-09T00:45:56.028Z,29.70
2023-12-09T00:48:23.504Z,31.88
2023-12-09T00:50:50.251Z,31.50
2023-12-09T00:53:17.017Z,30.95
2023-12-09T00:55:43.611Z,31.55
2023-12-09T00:58:10.352Z,31.48
2023-12-09T01:00:37.018Z,30.75
2023-12-09T01:03:03.809Z,30.70
2023-12-09T01:05:30.563Z,33.22
2023-12-09T01:07:57.156Z,29.83
2023-12-09T01:10:23.743Z,33.60
2023-12-09T01:12:50.942Z,31.95
2023-12-09T01:15:17.790Z,33.30
2023-12-09T01:17:44.462Z,34.10
2023-12-09T01:20:11.645Z,34.10
2023-12-09T01:22:38.251Z,31.98
2023-12-09T01:25:06.252Z,33.45
2023-12-09T01:27:32.895Z,31.67
2023-12-09T01:29:59.644Z,34.20
2023-12-09T01:32:26.486Z,32.53
2023-12-09T01:34:53.250Z,33.33
2023-12-09T01:37:20.000Z,33.28
2023-12-09T01:39:46.718Z,32.88
2023-12-09T01:42:13.379Z,33.22
2023-12-09T01:44:40.001Z,32.17
2023-12-09T01:47:08.272Z,34.72
2023-12-09T01:49:35.615Z,33.78
2023-12-09T01:52:03.293Z,37.63
2023-12-09T01:54:29.971Z,34.08
2023-12-09T01:56:57.301Z,35.78
2023-12-09T01:59:24.311Z,34.45
2023-12-09T02:01:52.970Z,35.42
2023-12-09T02:04:20.529Z,35.63
2023-12-09T02:06:47.255Z,33.55
2023-12-09T02:09:14.151Z,33.13
2023-12-09T02:11:51.862Z,33.83
2023-12-09T02:14:27.464Z,35.35
2023-12-09T02:17:01.812Z,33.47
2023-12-09T02:19:28.597Z,31.75
2023-12-09T02:22:01.590Z,35.55
2023-12-09T02:24:29.041Z,32.53
2023-12-09T02:26:59.860Z,32.22
2023-12-09T02:29:27.818Z,34.38
2023-12-09T02:32:01.303Z,34.20
2023-12-09T02:34:30.133Z,36.33
2023-12-09T02:36:57.500Z,35.65
2023-12-09T02:39:24.484Z,35.85
2023-12-09T02:41:52.010Z,33.70
2023-12-09T02:44:21.707Z,34.10
2023-12-09T02:46:57.020Z,32.50
2023-12-09T02:49:24.516Z,31.83
2023-12-09T02:51:51.244Z,35.60
2023-12-09T02:54:18.173Z,35.88
2023-12-09T02:56:44.802Z,33.83
2023-12-09T02:59:11.484Z,36.95
2023-12-09T03:01:38.175Z,35.30
2023-12-09T03:04:20.394Z,34.25
2023-12-09T03:06:58.376Z,33.63
2023-12-09T03:09:39.868Z,35.03
2023-12-09T03:12:15.768Z,34.38
2023-12-09T03:14:42.375Z,33.85
2023-12-09T03:17:10.811Z,33.05
2023-12-09T03:19:37.583Z,33.28
2023-12-09T03:22:04.640Z,35.80
2023-12-09T03:24:31.336Z,34.72
2023-12-09T03:26:57.914Z,35.10
2023-12-09T03:29:24.531Z,38.22
2023-12-09T03:31:51.142Z,35.92
2023-12-09T03:34:17.984Z,35.78
2023-12-09T03:36:44.721Z,35.17
2023-12-09T03:39:12.253Z,36.38
2023-12-09T03:41:38.859Z,37.28
2023-12-09T03:44:05.662Z,35.15
2023-12-09T03:46:32.244Z,36.17
2023-12-09T03:48:58.964Z,34.30
2023-12-09T03:51:25.578Z,34.08
2023-12-09T03:53:52.263Z,35.95
2023-12-09T03:56:18.919Z,35.38
2023-12-09T03:58:45.583Z,35.38
2023-12-09T04:01:12.297Z,36.08
2023-12-09T04:03:38.987Z,36.33
2023-12-09T04:06:06.513Z,33.45
2023-12-09T04:08:33.708Z,36.05
2023-12-09T04:11:00.284Z,36.00
2023-12-09T04:13:28.389Z,35.47
2023-12-09T04:15:55.285Z,34.55
2023-12-09T04:18:21.964Z,35.97
2023-12-09T04:20:48.621Z,36.80
2023-12-09T04:23:15.302Z,36.17
2023-12-09T04:25:41.889Z,33.90
2023-12-09T04:28:09.108Z,34.30
2023-12-09T04:30:35.828Z,36.75
2023-12-09T04:33:02.491Z,35.03
2023-12-09T04:35:29.079Z,36.75
2023-12-09T04:37:56.183Z,34.95
2023-12-09T04:40:22.786Z,35.00
2023-12-09T04:42:49.362Z,33.70
2023-12-09T04:45:16.102Z,36.20
2023-12-09T04:47:42.922Z,35.42
2023-12-09T04:50:09.861Z,34.97
2023-12-09T04:52:39.777Z,36.22
2023-12-09T04:55:06.834Z,33.58
2023-12-09T04:57:33.659Z,33.83
2023-12-09T05:00:04.499Z,35.67
2023-12-09T05:02:31.128Z,36.03
2023-12-09T05:04:57.726Z,35.05
2023-12-09T05:07:27.228Z,34.78
2023-12-09T05:09:54.142Z,35.35
2023-12-09T05:12:20.859Z,33.25
2023-12-09T05:14:47.758Z,35.55
2023-12-09T05:17:15.155Z,32.88
2023-12-09T05:19:42.125Z,34.72
2023-12-09T05:22:08.768Z,35.40
2023-12-09T05:24:35.368Z,34.10
2023-12-09T05:27:02.011Z,34.35
2023-12-09T05:29:28.647Z,32.42
2023-12-09T05:31:55.233Z,35.17
2023-12-09T05:34:21.915Z,38.83
2023-12-09T05:36:48.635Z,34.65
2023-12-09T05:39:16.120Z,35.50
2023-12-09T05:41:43.372Z,33.65
2023-12-09T05:44:10.152Z,35.97
2023-12-09T05:46:37.619Z,35.25
2023-12-09T05:49:04.432Z,35.60
2023-12-09T05:51:31.318Z,35.17
2023-12-09T05:53:58.053Z,33.20
2023-12-09T05:56:24.707Z,34.10
2023-12-09T05:58:51.343Z,36.97
2023-12-09T06:01:18.146Z,34.80
2023-12-09T06:03:44.860Z,36.58
2023-12-09T06:06:11.677Z,36.97
2023-12-09T06:08:38.458Z,34.53
2023-12-09T06:11:05.061Z,34.35
2023-12-09T06:13:32.540Z,33.78
2023-12-09T06:15:59.143Z,34.35
2023-12-09T06:18:26.792Z,34.58
2023-12-09T06:20:53.644Z,34.38
2023-12-09T06:23:20.265Z,37.88
2023-12-09T06:25:47.201Z,37.00
2023-12-09T06:28:13.828Z,38.97
2023-12-09T06:30:40.449Z,36.30
2023-12-09T06:33:07.263Z,36.03
2023-12-09T06:35:33.927Z,36.08
2023-12-09T06:38:00.680Z,39.00
2023-12-09T06:40:27.251Z,37.65
2023-12-09T06:42:53.874Z,35.88
2023-12-09T06:45:20.606Z,37.90
2023-12-09T06:47:47.388Z,36.45
2023-12-09T06:50:14.073Z,38.70
2023-12-09T06:52:40.918Z,34.95
2023-12-09T06:55:08.417Z,35.53
2023-12-09T06:57:36.068Z,37.15
2023-12-09T07:00:08.567Z,35.50
2023-12-09T07:02:44.937Z,36.83
2023-12-09T07:05:20.114Z,34.60
2023-12-09T07:07:47.149Z,36.28
2023-12-09T07:10:14.899Z,36.72
2023-12-09T07:12:44.116Z,34.53
2023-12-09T07:15:10.981Z,36.63
2023-12-09T07:17:38.980Z,35.88
2023-12-09T07:20:07.533Z,41.95
2023-12-09T07:22:34.280Z,36.20
2023-12-09T07:25:00.848Z,38.03
2023-12-09T07:27:28.161Z,36.83
2023-12-09T07:29:54.876Z,37.20
2023-12-09T07:32:21.552Z,39.15
2023-12-09T07:34:48.461Z,40.35
2023-12-09T07:37:16.068Z,38.70
2023-12-09T07:39:43.518Z,40.15
2023-12-09T07:42:11.068Z,39.28
2023-12-09T07:44:37.824Z,38.78
2023-12-09T07:47:07.225Z,37.90
2023-12-09T07:49:34.060Z,36.50
2023-12-09T07:52:01.012Z,37.28
2023-12-09T07:54:28.459Z,36.85
2023-12-09T07:56:55.243Z,36.85
2023-12-09T07:59:21.829Z,39.90
2023-12-09T08:01:48.812Z,41.20
2023-12-09T08:04:16.090Z,39.92
2023-12-09T08:06:42.822Z,37.60
2023-12-09T08:09:10.650Z,35.88
2023-12-09T08:11:37.280Z,37.25
2023-12-09T08:14:03.993Z,40.60
2023-12-09T08:16:30.618Z,38.90
2023-12-09T08:18:57.338Z,39.45
2023-12-09T08:21:26.058Z,38.63
2023-12-09T08:23:52.965Z,39.08
2023-12-09T08:26:19.847Z,43.17
2023-12-09T08:28:46.960Z,43.65
2023-12-09T08:31:13.700Z,39.70
2023-12-09T08:33:41.212Z,37.35
2023-12-09T08:36:08.590Z,40.05
2023-12-09T08:38:35.477Z,40.08
2023-12-09T08:41:02.164Z,38.72
2023-12-09T08:43:28.869Z,39.67
2023-12-09T08:45:55.451Z,41.35
2023-12-09T08:48:22.179Z,42.65
2023-12-09T08:50:49.080Z,43.42
2023-12-09T08:53:15.666Z,41.53
2023-12-09T08:55:42.486Z,39.80
2023-12-09T08:58:09.247Z,40.88
2023-12-09T09:00:36.236Z,40.78
2023-12-09T09:03:04.680Z,42.97
2023-12-09T09:05:31.536Z,44.58
2023-12-09T09:07:58.188Z,42.83
2023-12-09T09:10:24.758Z,41.22
2023-12-09T09:12:51.432Z,41.85
2023-12-09T09:15:18.285Z,42.65
2023-12-09T09:17:45.039Z,42.38
2023-12-09T09:20:12.089Z,41.47
2023-12-09T09:22:39.083Z,42.30
2023-12-09T09:25:06.183Z,40.28
2023-12-09T09:27:32.997Z,39.88
2023-12-09T09:30:00.047Z,39.83
2023-12-09T09:32:27.115Z,38.08
2023-12-09T09:34:54.183Z,40.03
2023-12-09T09:37:21.995Z,43.25
2023-12-09T09:39:51.831Z,43.47
2023-12-09T09:42:27.029Z,38.25
2023-12-09T09:45:06.623Z,38.63
2023-12-09T09:47:38.329Z,42.13
2023-12-09T09:50:09.709Z,36.45
2023-12-09T09:52:37.926Z,38.50
2023-12-09T09:55:07.640Z,37.35
2023-12-09T09:57:35.197Z,36.90
2023-12-09T10:00:02.925Z,38.08
2023-12-09T10:02:32.434Z,34.10
2023-12-09T10:04:59.033Z,35.45
2023-12-09T10:07:26.289Z,37.90
2023-12-09T10:09:52.953Z,36.97
2023-12-09T10:12:19.689Z,38.42
2023-12-09T10:14:49.077Z,38.78
2023-12-09T10:17:18.137Z,39.42
2023-12-09T10:19:46.411Z,40.05
2023-12-09T10:22:13.082Z,41.85
2023-12-09T10:24:45.860Z,39.58
2023-12-09T10:27:15.594Z,42.47
2023-12-09T10:29:44.895Z,43.78
2023-12-09T10:32:13.800Z,43.53
2023-12-09T10:34:40.941Z,41.55
2023-12-09T10:37:11.034Z,41.28
2023-12-09T10:39:37.833Z,49.28
2023-12-09T10:42:07.247Z,97.78
2023-12-09T10:44:33.936Z,53.03
2023-12-09T10:47:00.538Z,44.20
2023-12-09T10:49:27.335Z,42.17
2023-12-09T10:51:54.061Z,46.03
2023-12-09T10:54:21.259Z,40.13
2023-12-09T10:56:48.847Z,40.90
2023-12-09T10:59:18.631Z,43.40
2023-12-09T11:01:46.466Z,45.67
2023-12-09T11:04:17.068Z,45.75
2023-12-09T11:06:46.910Z,40.50
2023-12-09T11:09:15.824Z,41.72
2023-12-09T11:11:43.055Z,40.90
2023-12-09T11:14:13.008Z,41.58
2023-12-09T11:16:43.869Z,39.22
2023-12-09T11:19:18.136Z,38.78
2023-12-09T11:21:48.866Z,40.30
2023-12-09T11:24:18.593Z,38.35
2023-12-09T11:26:49.459Z,41.90
2023-12-09T11:29:21.180Z,39.80
2023-12-09T11:31:50.203Z,41.03
2023-12-09T11:34:19.489Z,40.85
2023-12-09T11:36:53.684Z,38.28
2023-12-09T11:39:23.473Z,40.25
2023-12-09T11:41:51.099Z,41.25
2023-12-09T11:44:18.417Z,40.90
2023-12-09T11:46:46.908Z,41.20
2023-12-09T11:49:14.139Z,40.67
2023-12-09T11:51:41.109Z,43.10
2023-12-09T11:54:09.981Z,41.75
2023-12-09T11:56:40.617Z,41.83
2023-12-09T11:59:07.917Z,39.78
2023-12-09T12:01:37.133Z,39.55
2023-12-09T12:04:04.347Z,38.63
2023-12-09T12:06:32.515Z,40.08
2023-12-09T12:08:59.593Z,39.80
2023-12-09T12:11:26.453Z,38.50
2023-12-09T12:13:54.337Z,37.30
2023-12-09T12:16:22.032Z,36.78
2023-12-09T12:18:49.623Z,37.13
2023-12-09T12:21:16.882Z,36.67
2023-12-09T12:23:43.828Z,36.13
2023-12-09T12:26:12.274Z,37.13
2023-12-09T12:28:39.032Z,37.10
2023-12-09T12:31:07.433Z,38.85
2023-12-09T12:33:34.783Z,39.22
2023-12-09T12:36:02.540Z,37.65
2023-12-09T12:38:29.752Z,38.30
2023-12-09T12:40:58.683Z,39.53
2023-12-09T12:43:31.860Z,42.78
2023-12-09T12:45:59.782Z,39.83
2023-12-09T12:48:26.703Z,39.92
2023-12-09T12:50:54.064Z,40.60
2023-12-09T12:53:21.702Z,41.67
2023-12-09T12:55:49.127Z,41.00
2023-12-09T12:58:16.790Z,39.63
2023-12-09T13:00:44.075Z,39.00
2023-12-09T13:03:10.830Z,41.70
2023-12-09T13:05:37.802Z,38.95
2023-12-09T13:08:05.825Z,38.60
2023-12-09T13:10:33.185Z,39.03
2023-12-09T13:13:00.099Z,38.72
2023-12-09T13:15:26.832Z,37.95
2023-12-09T13:17:53.668Z,39.15
2023-12-09T13:20:20.400Z,39.50
2023-12-09T13:22:47.242Z,38.17
2023-12-09T13:25:15.476Z,41.47
2023-12-09T13:27:43.116Z,41.67
2023-12-09T13:30:10.661Z,38.00
2023-12-09T13:32:38.917Z,39.28
2023-12-09T13:35:07.201Z,40.25
2023-12-09T13:37:34.609Z,39.40
2023-12-09T13:40:02.326Z,38.22
2023-12-09T13:42:29.704Z,40.80
2023-12-09T13:44:56.652Z,37.97
2023-12-09T13:47:23.792Z,38.10
2023-12-09T13:49:51.235Z,39.85
2023-12-09T13:52:18.836Z,37.83
2023-12-09T13:54:45.987Z,39.38
2023-12-09T13:57:12.835Z,39.08
2023-12-09T13:59:39.707Z,37.25
2023-12-09T14:02:07.798Z,39.00
2023-12-09T14:04:36.457Z,37.90
2023-12-09T14:07:03.574Z,35.88
2023-12-09T14:09:30.231Z,34.65
2023-12-09T14:11:56.997Z,36.00
2023-12-09T14:14:23.704Z,33.45
2023-12-09T14:16:50.435Z,34.42
2023-12-09T14:19:17.392Z,32.03
2023-12-09T14:21:44.144Z,33.83
2023-12-09T14:24:10.887Z,33.00
2023-12-09T14:26:37.644Z,32.92
2023-12-09T14:29:04.296Z,35.53
2023-12-09T14:31:31.033Z,29.40
2023-12-09T14:33:58.091Z,35.45
2023-12-09T14:36:25.217Z,35.95
2023-12-09T14:38:52.477Z,37.38
2023-12-09T14:41:19.340Z,37.28
2023-12-09T14:43:47.220Z,38.83
2023-12-09T14:46:15.847Z,37.83
2023-12-09T14:48:44.102Z,34.85
2023-12-09T14:51:10.911Z,36.72
2023-12-09T14:53:37.574Z,35.05
2023-12-09T14:56:04.665Z,34.15
2023-12-09T14:58:31.779Z,35.28
2023-12-09T15:00:58.700Z,33.75
2023-12-09T15:03:25.561Z,35.35
2023-12-09T15:05:52.310Z,36.63
2023-12-09T15:08:19.182Z,34.00
2023-12-09T15:10:47.044Z,35.53
2023-12-09T15:13:13.652Z,34.65
2023-12-09T15:15:40.287Z,33.45
2023-12-09T15:18:07.674Z,33.97
2023-12-09T15:20:34.406Z,32.22
2023-12-09T15:23:01.014Z,32.75
2023-12-09T15:25:27.665Z,31.00
2023-12-09T15:27:54.527Z,30.55
2023-12-09T15:30:21.419Z,29.00
2023-12-09T15:32:48.957Z,30.20
2023-12-09T15:35:15.739Z,29.90
2023-12-09T15:37:43.563Z,28.45
2023-12-09T15:40:12.015Z,29.60
2023-12-09T15:42:39.134Z,28.40
2023-12-09T15:45:06.697Z,29.50
2023-12-09T15:47:33.527Z,28.25
2023-12-09T15:50:00.447Z,29.58
2023-12-09T15:52:27.439Z,30.17
2023-12-09T15:54:54.480Z,26.70
2023-12-09T15:57:21.395Z,27.83
2023-12-09T15:59:49.512Z,29.75
2023-12-09T16:02:16.448Z,34.38
2023-12-09T16:04:43.790Z,46.42
2023-12-09T16:07:10.537Z,35.80
2023-12-09T16:09:41.158Z,27.20
2023-12-09T16:12:11.680Z,27.52
2023-12-09T16:14:41.524Z,29.33
2023-12-09T16:17:08.930Z,27.48
2023-12-09T16:19:35.972Z,26.85
2023-12-09T16:22:03.048Z,29.30
2023-12-09T16:24:29.805Z,26.83
2023-12-09T16:26:56.965Z,26.83
2023-12-09T16:29:24.317Z,29.33
2023-12-09T16:31:51.170Z,25.80
2023-12-09T16:34:17.994Z,27.25
2023-12-09T16:36:44.964Z,25.73
2023-12-09T16:39:14.147Z,30.35
2023-12-09T16:41:41.218Z,26.92
2023-12-09T16:44:11.132Z,24.73
2023-12-09T16:46:39.326Z,25.73
2023-12-09T16:49:09.228Z,25.30
2023-12-09T16:51:36.313Z,23.58
2023-12-09T16:54:03.402Z,24.95
2023-12-09T16:56:30.236Z,23.77
2023-12-09T16:58:58.057Z,26.20
2023-12-09T17:01:24.936Z,31.15
2023-12-09T17:03:51.909Z,27.05
2023-12-09T17:06:19.030Z,27.58
2023-12-09T17:08:45.751Z,26.13
2023-12-09T17:11:12.502Z,28.38
2023-12-09T17:13:39.149Z,27.63
2023-12-09T17:16:06.077Z,29.67
2023-12-09T17:18:32.867Z,29.27
2023-12-09T17:20:59.543Z,26.30
2023-12-09T17:23:26.415Z,30.83
2023-12-09T17:25:53.236Z,26.25
2023-12-09T17:28:20.204Z,25.90
2023-12-09T17:30:48.015Z,25.92
2023-12-09T17:33:14.916Z,26.15
2023-12-09T17:35:41.758Z,26.40
2023-12-09T17:38:08.764Z,25.70
2023-12-09T17:40:35.453Z,23.98
2023-12-09T17:43:02.114Z,22.95
2023-12-09T17:45:28.832Z,23.27
2023-12-09T17:47:55.626Z,27.48
2023-12-09T17:50:22.685Z,24.75
2023-12-09T17:52:49.496Z,20.35
2023-12-09T17:55:16.264Z,20.63
2023-12-09T17:57:43.201Z,20.02
2023-12-09T18:00:12.633Z,20.77
2023-12-09T18:02:39.404Z,20.48
2023-12-09T18:05:06.716Z,22.58
2023-12-09T18:07:33.535Z,23.15
2023-12-09T18:10:00.369Z,22.70
2023-12-09T18:12:27.864Z,22.27
2023-12-09T18:14:54.718Z,23.77
2023-12-09T18:17:21.614Z,24.15
2023-12-09T18:19:49.684Z,22.42
2023-12-09T18:22:18.426Z,20.60
2023-12-09T18:24:46.612Z,22.08
2023-12-09T18:27:13.268Z,21.45
2023-12-09T18:29:45.056Z,20.55
2023-12-09T18:32:16.619Z,21.02
2023-12-09T18:34:43.814Z,20.07
2023-12-09T18:37:12.223Z,20.38
2023-12-09T18:39:39.311Z,18.75
2023-12-09T18:42:06.196Z,19.60
2023-12-09T18:44:32.947Z,21.13
2023-12-09T18:46:59.662Z,22.67
2023-12-09T18:49:26.479Z,21.40
2023-12-09T18:51:53.700Z,24.50
2023-12-09T18:54:20.456Z,21.55
2023-12-09T18:56:47.205Z,20.88
2023-12-09T18:59:16.131Z,19.98
2023-12-09T19:01:44.288Z,21.63
2023-12-09T19:04:11.124Z,22.08
2023-12-09T19:06:45.789Z,22.65
2023-12-09T19:09:20.582Z,23.73
2023-12-09T19:11:47.461Z,21.95
2023-12-09T19:14:14.182Z,21.17
2023-12-09T19:16:41.702Z,22.05
2023-12-09T19:19:08.492Z,22.77
2023-12-09T19:21:40.865Z,21.35
2023-12-09T19:24:09.624Z,23.00
2023-12-09T19:26:36.871Z,23.23
2023-12-09T19:29:04.720Z,22.38
2023-12-09T19:31:31.449Z,21.23
2023-12-09T19:33:59.932Z,22.48
2023-12-09T19:36:26.790Z,21.65
2023-12-09T19:38:53.443Z,24.38
2023-12-09T19:41:20.292Z,21.23
2023-12-09T19:43:46.934Z,23.17
2023-12-09T19:46:13.663Z,20.67
2023-12-09T19:48:41.353Z,21.25
2023-12-09T19:51:08.168Z,21.55
2023-12-09T19:53:34.974Z,19.40
2023-12-09T19:56:01.628Z,20.92
2023-12-09T19:58:28.416Z,20.27
2023-12-09T20:00:55.268Z,20.48
2023-12-09T20:03:22.171Z,20.15
2023-12-09T20:05:48.848Z,22.02
2023-12-09T20:08:15.568Z,21.17
2023-12-09T20:10:43.017Z,18.77
2023-12-09T20:13:09.935Z,20.77
2023-12-09T20:15:36.713Z,20.02
2023-12-09T20:18:03.697Z,19.65
2023-12-09T20:20:30.722Z,19.63
2023-12-09T20:22:57.960Z,19.17
2023-12-09T20:25:24.694Z,18.27
2023-12-09T20:27:53.077Z,19.30
2023-12-09T20:30:20.213Z,19.40
2023-12-09T20:32:47.432Z,19.45
2023-12-09T20:35:14.144Z,20.52
2023-12-09T20:37:41.346Z,17.75
2023-12-09T20:40:08.734Z,17.80
2023-12-09T20:42:35.465Z,19.20
2023-12-09T20:45:04.212Z,16.75
2023-12-09T20:47:30.985Z,17.60
2023-12-09T20:49:57.754Z,17.55
2023-12-09T20:52:24.733Z,18.25
2023-12-09T20:54:51.567Z,17.33
2023-12-09T20:57:18.377Z,18.48
2023-12-09T20:59:45.442Z,17.35
2023-12-09T21:02:12.232Z,16.88
2023-12-09T21:04:43.989Z,16.35
2023-12-09T21:07:11.029Z,17.17
2023-12-09T21:09:40.280Z,16.98
2023-12-09T21:12:07.663Z,17.10
2023-12-09T21:14:35.234Z,17.13
2023-12-09T21:17:01.904Z,18.52
2023-12-09T21:19:32.180Z,17.77
2023-12-09T21:21:59.093Z,16.55
2023-12-09T21:24:25.843Z,17.60
2023-12-09T21:26:54.220Z,17.70
2023-12-09T21:29:20.981Z,18.40
2023-12-09T21:31:47.688Z,20.00
2023-12-09T21:34:14.793Z,17.35
2023-12-09T21:36:41.586Z,16.63
2023-12-09T21:39:09.916Z,16.98
2023-12-09T21:41:36.827Z,18.58
2023-12-09T21:44:03.555Z,17.70
2023-12-09T21:46:30.599Z,16.13
2023-12-09T21:48:57.490Z,17.52
2023-12-09T21:51:24.259Z,17.70
2023-12-09T21:53:51.015Z,16.95
2023-12-09T21:56:25.518Z,16.45
2023-12-09T21:58:53.122Z,17.23
2023-12-09T22:01:20.596Z,18.17
2023-12-09T22:03:48.277Z,17.25
2023-12-09T22:06:15.652Z,16.40
2023-12-09T22:08:43.464Z,16.92
2023-12-09T22:11:10.966Z,18.25
2023-12-09T22:13:37.762Z,17.42
2023-12-09T22:16:04.704Z,16.88
2023-12-09T22:18:31.636Z,16.75
2023-12-09T22:21:01.119Z,20.58
2023-12-09T22:23:28.143Z,24.08
2023-12-09T22:25:55.449Z,23.55
2023-12-09T22:28:22.455Z,21.45
2023-12-09T22:30:49.235Z,23.88
2023-12-09T22:33:16.155Z,28.48
2023-12-09T22:35:42.875Z,24.00
2023-12-09T22:38:09.524Z,24.58
2023-12-09T22:40:37.174Z,22.95
2023-12-09T22:43:03.974Z,24.85
2023-12-09T22:45:30.662Z,24.10
2023-12-09T22:47:57.780Z,23.70
2023-12-09T22:50:24.569Z,23.52
2023-12-09T22:52:51.177Z,21.83
2023-12-09T22:55:17.838Z,22.45
2023-12-09T22:57:44.527Z,21.35
2023-12-09T23:00:19.551Z,22.17
2023-12-09T23:02:46.285Z,20.63
2023-12-09T23:05:12.998Z,21.73
2023-12-09T23:07:39.689Z,21.75
2023-12-09T23:10:06.823Z,21.85
2023-12-09T23:12:33.640Z,21.88
2023-12-09T23:15:00.340Z,22.08
2023-12-09T23:17:27.173Z,21.15
2023-12-09T23:19:53.873Z,22.83
2023-12-09T23:22:20.592Z,21.35
2023-12-09T23:24:47.284Z,21.10
2023-12-09T23:27:13.970Z,23.15
2023-12-09T23:29:40.639Z,21.88
2023-12-09T23:32:07.523Z,23.20
2023-12-09T23:34:34.604Z,21.08
2023-12-09T23:37:01.340Z,21.50
2023-12-09T23:39:28.059Z,21.17
2023-12-09T23:41:54.691Z,20.55
2023-12-09T23:44:22.819Z,22.92
2023-12-09T23:46:49.550Z,20.92
2023-12-09T23:49:16.249Z,19.80
2023-12-09T23:51:43.032Z,19.95
2023-12-09T23:54:09.795Z,19.42
2023-12-09T23:56:36.548Z,21.27
2023-12-09T23:59:03.249Z,19.38
